createdAt,value
2023-01-11T00:00:49.445Z,6.93
2023-01-11T00:05:58.679Z,4.77
2023-01-11T00:11:04.401Z,5.67
2023-01-11T00:16:10.522Z,7.30
2023-01-11T00:21:15.968Z,7.57
2023-01-11T00:26:21.688Z,6.87
2023-01-11T00:31:29.834Z,6.67
2023-01-11T00:36:35.558Z,6.23
2023-01-11T00:41:58.719Z,5.83
2023-01-11T00:47:21.877Z,7.20
2023-01-11T00:52:27.521Z,5.50
2023-01-11T00:57:32.982Z,5.60
2023-01-11T01:02:39.920Z,5.70
2023-01-11T01:07:46.219Z,5.83
2023-01-11T01:13:10.190Z,6.40
2023-01-11T01:18:16.241Z,5.40
2023-01-11T01:23:21.503Z,5.63
2023-01-11T01:28:26.974Z,4.60
2023-01-11T01:33:32.950Z,5.53
2023-01-11T01:38:38.339Z,5.60
2023-01-11T01:43:58.575Z,6.47
2023-01-11T01:49:06.898Z,5.87
2023-01-11T01:54:15.178Z,5.90
2023-01-11T01:59:26.159Z,6.13
2023-01-11T02:04:34.385Z,5.87
2023-01-11T02:09:42.714Z,7.13
2023-01-11T02:14:50.471Z,7.00
2023-01-11T02:19:59.460Z,6.77
2023-01-11T02:25:27.576Z,7.60
2023-01-11T02:30:42.453Z,7.40
2023-01-11T02:36:03.585Z,7.70
2023-01-11T02:41:23.885Z,6.63
2023-01-11T02:46:36.042Z,7.93
2023-01-11T02:51:49.907Z,8.97
2023-01-11T02:56:59.378Z,7.60
2023-01-11T03:02:06.213Z,8.07
2023-01-11T03:07:41.480Z,9.83
2023-01-11T03:13:06.465Z,10.07
2023-01-11T03:18:34.368Z,8.67
2023-01-11T03:23:52.572Z,9.93
2023-01-11T03:29:18.895Z,12.07
2023-01-11T03:34:36.084Z,8.00
2023-01-11T03:39:48.223Z,9.03
2023-01-11T03:44:56.632Z,8.07
2023-01-11T03:50:11.681Z,8.17
2023-01-11T03:55:18.282Z,8.77
2023-01-11T04:00:28.823Z,6.37
2023-01-11T04:05:35.929Z,7.00
2023-01-11T04:10:43.747Z,7.07
2023-01-11T04:15:49.199Z,6.90
2023-01-11T04:20:55.649Z,6.10
2023-01-11T04:26:01.380Z,6.53
2023-01-11T04:31:06.698Z,7.03
2023-01-11T04:36:14.442Z,6.57
2023-01-11T04:41:38.942Z,5.23
2023-01-11T04:46:44.237Z,7.30
2023-01-11T04:51:49.568Z,4.43
2023-01-11T04:56:54.980Z,5.60
2023-01-11T05:02:01.832Z,5.13
2023-01-11T05:07:09.419Z,4.50
2023-01-11T05:12:15.170Z,5.60
2023-01-11T05:17:22.083Z,5.00
2023-01-11T05:22:29.739Z,5.47
2023-01-11T05:27:35.948Z,5.93
2023-01-11T05:32:44.833Z,5.97
2023-01-11T05:37:52.270Z,5.30
2023-01-11T05:42:59.183Z,5.87
2023-01-11T05:48:08.210Z,5.13
2023-01-11T05:53:19.991Z,5.40
2023-01-11T05:58:30.973Z,3.47
2023-01-11T06:03:42.125Z,6.20
2023-01-11T06:09:01.788Z,4.53
2023-01-11T06:14:07.121Z,5.67
2023-01-11T06:19:14.331Z,5.97
2023-01-11T06:24:20.864Z,5.60
2023-01-11T06:29:27.936Z,6.20
2023-01-11T06:34:34.037Z,4.83
2023-01-11T06:39:40.467Z,7.40
2023-01-11T06:50:53.301Z,6.03
2023-01-11T06:56:28.817Z,5.60
2023-01-11T07:01:36.252Z,5.97
2023-01-11T07:06:43.201Z,4.60
2023-01-11T07:11:48.706Z,6.30
2023-01-11T07:16:55.427Z,6.03
2023-01-11T07:22:03.137Z,5.00
2023-01-11T07:27:10.379Z,5.43
2023-01-11T07:32:18.051Z,6.43
2023-01-11T07:37:29.293Z,3.97
2023-01-11T07:43:01.130Z,5.10
2023-01-11T07:48:09.747Z,6.20
2023-01-11T07:53:15.371Z,4.37
2023-01-11T07:58:24.755Z,5.50
2023-01-11T08:03:33.675Z,8.37
2023-01-11T08:08:48.386Z,5.17
2023-01-11T08:14:12.547Z,5.57
2023-01-11T08:19:19.840Z,6.13
2023-01-11T08:24:27.352Z,4.20
2023-01-11T08:29:34.805Z,3.90
2023-01-11T08:34:42.396Z,5.97
2023-01-11T08:39:51.423Z,5.03
2023-01-11T08:45:05.812Z,6.13
2023-01-11T08:50:40.603Z,5.30
2023-01-11T08:56:03.827Z,3.63
2023-01-11T09:01:11.046Z,4.43
2023-01-11T09:12:00.487Z,4.17
2023-01-11T09:17:10.772Z,3.40
2023-01-11T09:28:21.269Z,3.07
2023-01-11T09:33:28.903Z,2.60
2023-01-11T09:44:34.516Z,2.60
2023-01-11T09:49:52.427Z,2.43
2023-01-11T09:55:16.090Z,4.20
2023-01-11T10:00:33.819Z,2.47
2023-01-11T10:06:15.615Z,2.13
2023-01-11T10:18:42.884Z,2.50
2023-01-11T10:22:44.281Z,2.17
2023-01-11T10:28:06.080Z,2.50
2023-01-11T10:33:51.513Z,2.80
2023-01-11T10:39:51.683Z,2.00
2023-01-11T10:45:09.786Z,2.80
2023-01-11T10:50:25.897Z,3.00
2023-01-11T10:56:13.619Z,2.47
2023-01-11T11:01:45.444Z,1.83
2023-01-11T11:07:12.518Z,2.80
2023-01-11T11:12:38.748Z,1.73
2023-01-11T11:17:47.985Z,1.83
2023-01-11T11:23:07.645Z,2.47
2023-01-11T11:28:24.189Z,1.10
2023-01-11T11:33:46.588Z,2.30
2023-01-11T11:39:13.878Z,2.60
2023-01-11T11:44:27.156Z,1.97
2023-01-11T11:49:39.383Z,1.63
2023-01-11T12:06:31.473Z,1.27
2023-01-11T12:11:42.318Z,1.03
2023-01-11T12:16:51.000Z,1.77
2023-01-11T12:22:18.903Z,1.17
2023-01-11T12:27:39.869Z,1.33
2023-01-11T12:33:08.657Z,1.70
2023-01-11T12:38:25.179Z,1.27
2023-01-11T12:44:02.457Z,1.53
2023-01-11T12:49:37.146Z,1.77
2023-01-11T12:54:52.493Z,1.40
2023-01-11T13:00:30.240Z,1.27
2023-01-11T13:06:23.876Z,1.63
2023-01-11T13:11:59.464Z,1.73
2023-01-11T13:17:13.358Z,2.73
2023-01-11T13:22:22.189Z,1.77
2023-01-11T13:27:28.869Z,2.63
2023-01-11T13:32:40.256Z,1.83
2023-01-11T13:37:54.044Z,1.83
2023-01-11T13:43:21.783Z,3.17
2023-01-11T13:48:30.565Z,1.73
2023-01-11T13:53:41.583Z,1.90
2023-01-11T13:58:56.375Z,2.90
2023-01-11T14:04:34.925Z,1.40
2023-01-11T14:10:02.597Z,1.90
2023-01-11T14:15:50.917Z,2.10
2023-01-11T14:21:08.346Z,1.90
2023-01-11T14:26:34.754Z,2.60
2023-01-11T14:31:48.869Z,2.20
2023-01-11T14:37:29.063Z,2.90
2023-01-11T14:42:40.497Z,2.10
2023-01-11T14:47:55.064Z,1.40
2023-01-11T14:53:03.561Z,2.43
2023-01-11T14:58:28.194Z,2.00
2023-01-11T15:03:43.064Z,2.23
2023-01-11T15:08:55.203Z,4.57
2023-01-11T15:14:10.227Z,12.60
2023-01-11T15:19:33.493Z,6.43
2023-01-11T15:24:40.856Z,6.73
2023-01-11T15:29:50.501Z,23.27
2023-01-11T15:34:58.588Z,24.10
2023-01-11T15:40:21.325Z,23.77
2023-01-11T15:45:35.315Z,12.03
2023-01-11T15:51:00.109Z,13.33
2023-01-11T15:56:35.262Z,4.93
2023-01-11T16:02:00.196Z,2.80
2023-01-11T16:07:27.960Z,2.70
2023-01-11T16:12:58.861Z,3.57
2023-01-11T16:18:12.544Z,3.87
2023-01-11T16:23:20.847Z,3.67
2023-01-11T16:28:26.927Z,5.77
2023-01-11T16:33:35.093Z,4.40
2023-01-11T16:39:04.415Z,5.93
2023-01-11T16:44:11.995Z,5.27
2023-01-11T16:49:20.368Z,7.00
2023-01-11T16:54:31.576Z,3.77
2023-01-11T16:59:37.647Z,4.53
2023-01-11T17:04:54.603Z,4.40
2023-01-11T17:10:22.386Z,3.70
2023-01-11T17:15:38.046Z,4.10
2023-01-11T17:20:43.431Z,14.33
2023-01-11T17:25:53.699Z,12.80
2023-01-11T17:31:00.881Z,18.27
2023-01-11T17:36:08.804Z,28.70
2023-01-11T17:41:33.816Z,12.33
2023-01-11T17:46:41.356Z,8.53
2023-01-11T17:51:46.717Z,5.87
2023-01-11T17:57:01.248Z,4.63
2023-01-11T18:02:12.922Z,7.03
2023-01-11T18:07:21.613Z,7.07
2023-01-11T18:12:32.760Z,7.73
2023-01-11T18:17:40.538Z,5.60
2023-01-11T18:23:04.738Z,5.63
2023-01-11T18:28:24.307Z,5.13
2023-01-11T18:33:32.298Z,11.10
2023-01-11T18:38:38.166Z,6.17
2023-01-11T18:43:43.521Z,4.37
2023-01-11T18:54:28.572Z,4.50
2023-01-11T18:59:37.697Z,4.43
2023-01-11T19:04:43.666Z,4.97
2023-01-11T19:09:51.030Z,5.07
2023-01-11T19:14:59.515Z,5.27
2023-01-11T19:20:14.053Z,4.40
2023-01-11T19:25:23.602Z,6.93
2023-01-11T19:30:32.355Z,4.97
2023-01-11T19:35:43.507Z,5.03
2023-01-11T19:40:51.493Z,9.17
2023-01-11T19:46:00.223Z,7.07
2023-01-11T19:51:12.678Z,11.67
2023-01-11T19:56:20.471Z,6.47
2023-01-11T20:01:28.521Z,12.93
2023-01-11T20:06:34.683Z,8.53
2023-01-11T20:11:39.889Z,7.40
2023-01-11T20:16:45.952Z,6.33
2023-01-11T20:21:51.227Z,6.63
2023-01-11T20:26:59.601Z,7.03
2023-01-11T20:32:27.819Z,5.33
2023-01-11T20:37:14.798Z,4.93
2023-01-11T20:42:20.388Z,3.43
2023-01-11T20:47:25.628Z,3.00
2023-01-11T20:52:59.845Z,4.67
2023-01-11T20:58:28.030Z,5.43
2023-01-11T21:09:24.011Z,12.47
2023-01-11T21:14:53.015Z,6.37
2023-01-11T21:20:03.659Z,5.10
2023-01-11T21:25:12.481Z,5.27
2023-01-11T21:30:21.889Z,5.43
2023-01-11T21:35:27.660Z,10.50
2023-01-11T21:40:42.176Z,5.10
2023-01-11T21:45:56.891Z,6.03
2023-01-11T21:51:07.495Z,4.23
2023-01-11T21:56:12.914Z,4.27
2023-01-11T22:01:23.614Z,4.77
2023-01-11T22:06:32.685Z,4.87
2023-01-11T22:11:49.897Z,4.23
2023-01-11T22:17:08.482Z,4.50
2023-01-11T22:27:44.523Z,3.50
2023-01-11T22:32:49.891Z,3.67
2023-01-11T22:37:56.040Z,4.33
2023-01-11T22:43:01.263Z,4.97
2023-01-11T22:48:07.671Z,4.17
2023-01-11T22:53:12.841Z,4.40
2023-01-11T22:58:20.612Z,3.53
2023-01-11T23:03:26.125Z,4.07
2023-01-11T23:08:31.799Z,3.30
2023-01-11T23:13:56.259Z,4.23
2023-01-11T23:19:05.204Z,3.97
2023-01-11T23:24:19.687Z,3.93
2023-01-11T23:29:27.084Z,4.20
2023-01-11T23:34:42.447Z,4.17
2023-01-11T23:39:47.772Z,3.67
2023-01-11T23:44:57.748Z,4.20
2023-01-11T23:50:03.997Z,4.00
2023-01-11T23:55:27.863Z,5.10
